createdAt,value
2022-08-29T00:03:19.678Z,6.70
2022-08-29T00:08:25.987Z,5.13
2022-08-29T00:13:31.587Z,6.00
2022-08-29T00:18:37.898Z,7.93
2022-08-29T00:23:47.973Z,5.10
2022-08-29T00:28:53.540Z,5.20
2022-08-29T00:33:59.139Z,4.90
2022-08-29T00:39:09.213Z,6.80
2022-08-29T00:44:13.716Z,8.93
2022-08-29T00:49:31.382Z,3.33
2022-08-29T00:54:38.071Z,5.93
2022-08-29T00:59:43.858Z,3.83
2022-08-29T01:04:49.390Z,4.87
2022-08-29T01:09:55.470Z,5.03
2022-08-29T01:15:04.299Z,7.37
2022-08-29T01:20:32.297Z,7.67
2022-08-29T01:25:40.938Z,4.37
2022-08-29T01:31:04.425Z,3.00
2022-08-29T01:36:12.234Z,3.67
2022-08-29T01:41:20.831Z,6.83
2022-08-29T01:46:29.745Z,7.27
2022-08-29T01:51:36.891Z,4.93
2022-08-29T01:56:45.282Z,8.13
2022-08-29T02:02:02.869Z,5.53
2022-08-29T02:07:12.541Z,5.60
2022-08-29T02:12:17.385Z,11.07
2022-08-29T02:17:23.876Z,5.00
2022-08-29T02:22:29.380Z,4.73
2022-08-29T02:27:36.585Z,5.20
2022-08-29T02:32:42.120Z,5.57
2022-08-29T02:37:47.685Z,4.80
2022-08-29T02:42:54.947Z,6.30
2022-08-29T02:48:00.851Z,6.00
2022-08-29T02:53:06.522Z,6.77
2022-08-29T02:58:12.046Z,8.40
2022-08-29T03:03:18.061Z,7.73
2022-08-29T03:08:23.630Z,7.07
2022-08-29T03:13:29.196Z,6.23
2022-08-29T03:18:34.864Z,5.07
2022-08-29T03:23:40.422Z,4.73
2022-08-29T03:28:46.898Z,8.73
2022-08-29T03:33:52.776Z,7.87
2022-08-29T03:38:58.247Z,8.00
2022-08-29T03:44:04.068Z,7.33
2022-08-29T03:49:10.095Z,7.93
2022-08-29T03:54:15.671Z,7.00
2022-08-29T03:59:21.251Z,8.27
2022-08-29T04:04:45.432Z,7.40
2022-08-29T04:09:51.105Z,5.53
2022-08-29T04:14:56.651Z,7.97
2022-08-29T04:20:02.149Z,8.03
2022-08-29T04:25:10.713Z,7.43
2022-08-29T04:30:20.168Z,8.07
2022-08-29T04:35:26.290Z,6.07
2022-08-29T04:40:32.441Z,5.40
2022-08-29T04:45:40.682Z,10.00
2022-08-29T04:50:46.357Z,8.93
2022-08-29T04:56:09.638Z,5.83
2022-08-29T05:01:18.554Z,7.50
2022-08-29T05:06:25.885Z,8.97
2022-08-29T05:11:33.225Z,5.63
2022-08-29T05:16:39.197Z,8.50
2022-08-29T05:21:45.144Z,7.20
2022-08-29T05:26:51.639Z,6.83
2022-08-29T05:32:02.112Z,9.00
2022-08-29T05:37:14.792Z,5.93
2022-08-29T05:42:23.067Z,8.43
2022-08-29T05:47:28.632Z,12.00
2022-08-29T05:52:34.818Z,8.00
2022-08-29T05:57:40.698Z,13.33
2022-08-29T06:02:46.443Z,7.10
2022-08-29T06:07:53.563Z,8.33
2022-08-29T06:12:59.363Z,8.73
2022-08-29T06:18:06.939Z,8.23
2022-08-29T06:23:12.700Z,9.33
2022-08-29T06:28:19.761Z,10.23
2022-08-29T06:33:26.091Z,9.93
2022-08-29T06:38:31.565Z,12.17
2022-08-29T06:43:37.245Z,11.73
2022-08-29T06:48:42.882Z,11.67
2022-08-29T06:53:48.486Z,8.77
2022-08-29T06:58:55.078Z,7.13
2022-08-29T07:04:01.323Z,9.53
2022-08-29T07:09:08.111Z,7.87
2022-08-29T07:14:14.392Z,8.70
2022-08-29T07:19:19.960Z,7.17
2022-08-29T07:24:25.566Z,10.47
2022-08-29T07:29:31.186Z,9.20
2022-08-29T07:34:36.961Z,9.67
2022-08-29T07:39:42.628Z,9.30
2022-08-29T07:44:48.186Z,6.53
2022-08-29T07:49:54.165Z,12.67
2022-08-29T07:54:59.723Z,9.17
2022-08-29T08:00:08.215Z,7.10
2022-08-29T08:05:15.470Z,9.37
2022-08-29T08:10:21.443Z,9.63
2022-08-29T08:15:28.338Z,6.50
2022-08-29T08:20:34.115Z,7.20
2022-08-29T08:25:39.797Z,7.17
2022-08-29T08:30:45.525Z,5.63
2022-08-29T08:35:51.110Z,7.13
2022-08-29T08:41:08.551Z,6.90
2022-08-29T08:46:14.998Z,5.87
2022-08-29T08:51:23.496Z,5.70
2022-08-29T08:56:44.399Z,5.33
2022-08-29T09:01:59.173Z,6.23
2022-08-29T09:07:39.664Z,7.70
2022-08-29T09:13:22.295Z,6.03
2022-08-29T09:18:35.148Z,7.37
2022-08-29T09:23:52.507Z,5.90
2022-08-29T09:28:59.315Z,5.20
2022-08-29T09:34:15.619Z,4.90
2022-08-29T09:39:32.916Z,4.77
2022-08-29T09:44:39.300Z,4.37
2022-08-29T09:49:47.843Z,4.53
2022-08-29T09:54:53.406Z,3.80
2022-08-29T10:00:17.679Z,4.00
2022-08-29T10:05:46.819Z,4.28
2022-08-29T10:10:55.288Z,3.80
2022-08-29T10:16:15.589Z,4.27
2022-08-29T10:21:40.583Z,4.37
2022-08-29T10:27:07.339Z,4.50
2022-08-29T10:32:27.857Z,3.63
2022-08-29T10:37:48.380Z,2.70
2022-08-29T10:43:13.492Z,2.70
2022-08-29T10:48:22.099Z,2.50
2022-08-29T10:53:33.338Z,3.10
2022-08-29T10:59:17.997Z,3.53
2022-08-29T11:04:29.437Z,1.57
2022-08-29T11:09:47.677Z,1.97
2022-08-29T11:15:04.915Z,2.77
2022-08-29T11:20:23.182Z,1.70
2022-08-29T11:25:32.385Z,2.30
2022-08-29T11:30:56.010Z,2.53
2022-08-29T11:36:13.657Z,2.80
2022-08-29T11:41:40.253Z,5.20
2022-08-29T11:46:53.616Z,2.07
2022-08-29T11:51:59.683Z,2.03
2022-08-29T11:57:08.895Z,2.80
2022-08-29T12:02:32.484Z,2.60
2022-08-29T12:07:41.428Z,8.37
2022-08-29T12:12:51.250Z,3.30
2022-08-29T12:18:13.891Z,3.67
2022-08-29T12:23:25.840Z,2.53
2022-08-29T12:28:37.613Z,2.10
2022-08-29T12:34:02.905Z,2.30
2022-08-29T12:39:09.231Z,2.13
2022-08-29T12:44:17.493Z,2.27
2022-08-29T12:49:32.095Z,2.57
2022-08-29T12:54:42.015Z,1.70
2022-08-29T12:59:52.139Z,2.27
2022-08-29T13:04:59.243Z,2.63
2022-08-29T13:10:06.861Z,2.47
2022-08-29T13:15:24.923Z,2.83
2022-08-29T13:20:50.028Z,2.83
2022-08-29T13:26:09.318Z,2.63
2022-08-29T13:31:21.572Z,3.10
2022-08-29T13:36:46.968Z,2.63
2022-08-29T13:42:10.676Z,4.63
2022-08-29T13:47:19.244Z,2.23
2022-08-29T13:52:25.683Z,2.40
2022-08-29T13:57:34.391Z,2.47
2022-08-29T14:02:45.239Z,2.00
2022-08-29T14:07:48.819Z,2.07
2022-08-29T14:12:54.534Z,2.07
2022-08-29T14:18:00.458Z,1.73
2022-08-29T14:23:07.459Z,2.60
2022-08-29T14:28:16.094Z,2.00
2022-08-29T14:33:20.536Z,1.53
2022-08-29T14:38:26.101Z,2.40
2022-08-29T14:43:34.241Z,1.97
2022-08-29T14:48:39.079Z,2.27
2022-08-29T14:53:54.080Z,2.07
2022-08-29T14:58:52.667Z,1.90
2022-08-29T15:03:58.357Z,1.77
2022-08-29T15:09:04.029Z,1.83
2022-08-29T15:14:09.933Z,2.00
2022-08-29T15:24:23.039Z,1.60
2022-08-29T15:29:30.450Z,2.33
2022-08-29T15:34:36.112Z,2.80
2022-08-29T15:39:42.413Z,2.20
2022-08-29T15:44:51.362Z,2.03
2022-08-29T15:49:56.079Z,2.60
2022-08-29T15:55:01.852Z,2.17
2022-08-29T16:00:09.128Z,2.33
2022-08-29T16:05:17.338Z,2.23
2022-08-29T16:10:23.145Z,2.30
2022-08-29T16:15:30.602Z,2.70
2022-08-29T16:20:38.027Z,2.87
2022-08-29T16:25:44.461Z,3.47
2022-08-29T16:30:51.776Z,4.67
2022-08-29T16:35:58.763Z,6.23
2022-08-29T16:41:10.373Z,5.53
2022-08-29T16:46:17.833Z,4.47
2022-08-29T16:51:25.761Z,4.30
2022-08-29T16:56:33.110Z,5.23
2022-08-29T17:01:43.201Z,4.47
2022-08-29T17:06:49.372Z,3.57
2022-08-29T17:11:56.235Z,4.43
2022-08-29T17:17:03.416Z,4.77
2022-08-29T17:22:10.660Z,4.27
2022-08-29T17:27:21.117Z,4.43
2022-08-29T17:32:23.834Z,3.37
2022-08-29T17:37:31.655Z,2.80
2022-08-29T17:42:38.236Z,3.20
2022-08-29T17:47:44.323Z,2.97
2022-08-29T17:52:50.127Z,3.03
2022-08-29T17:57:55.651Z,2.33
2022-08-29T18:03:01.492Z,2.30
2022-08-29T18:08:08.002Z,3.10
2022-08-29T18:13:15.138Z,2.10
2022-08-29T18:18:22.122Z,3.83
2022-08-29T18:23:27.668Z,3.60
2022-08-29T18:28:33.594Z,4.10
2022-08-29T18:33:59.521Z,4.00
2022-08-29T18:38:46.830Z,4.07
2022-08-29T18:43:53.496Z,4.87
2022-08-29T18:48:59.484Z,4.27
2022-08-29T18:54:06.079Z,4.37
2022-08-29T18:59:12.670Z,5.17
2022-08-29T19:04:20.297Z,6.10
2022-08-29T19:09:25.544Z,6.17
2022-08-29T19:14:31.521Z,6.33
2022-08-29T19:19:55.221Z,5.30
2022-08-29T19:25:01.509Z,4.87
2022-08-29T19:30:09.870Z,4.10
2022-08-29T19:35:16.542Z,4.27
2022-08-29T19:40:22.604Z,4.77
2022-08-29T19:45:28.602Z,4.37
2022-08-29T19:50:34.425Z,4.13
2022-08-29T19:55:40.810Z,3.77
2022-08-29T20:00:46.960Z,3.83
2022-08-29T20:05:53.388Z,3.50
2022-08-29T20:10:58.939Z,4.50
2022-08-29T20:16:06.506Z,4.40
2022-08-29T20:21:30.390Z,3.93
2022-08-29T20:26:38.150Z,3.07
2022-08-29T20:31:44.345Z,3.67
2022-08-29T20:37:07.826Z,3.77
2022-08-29T20:42:14.309Z,1.80
2022-08-29T20:47:21.841Z,1.20
2022-08-29T20:52:27.545Z,1.30
2022-08-29T20:57:33.981Z,3.77
2022-08-29T21:02:57.154Z,1.10
2022-08-29T21:08:03.430Z,1.43
2022-08-29T21:13:09.710Z,0.80
2022-08-29T21:18:20.284Z,1.00
2022-08-29T21:23:27.106Z,1.93
2022-08-29T21:28:33.455Z,2.47
2022-08-29T21:33:41.855Z,0.63
2022-08-29T21:38:48.835Z,0.80
2022-08-29T21:43:54.569Z,0.80
2022-08-29T21:49:04.025Z,1.20
2022-08-29T21:54:13.425Z,2.47
2022-08-29T21:59:18.078Z,2.10
2022-08-29T22:04:29.063Z,1.33
2022-08-29T22:09:32.735Z,1.07
2022-08-29T22:14:56.798Z,0.80
2022-08-29T22:20:02.399Z,2.40
2022-08-29T22:25:08.362Z,1.23
2022-08-29T22:30:15.248Z,1.27
2022-08-29T22:35:20.845Z,1.23
2022-08-29T22:40:27.567Z,1.00
2022-08-29T22:45:33.656Z,1.33
2022-08-29T22:50:39.267Z,1.80
2022-08-29T22:55:45.041Z,1.90
2022-08-29T23:00:50.600Z,0.80
2022-08-29T23:05:56.166Z,0.83
2022-08-29T23:11:01.627Z,1.53
2022-08-29T23:16:07.425Z,1.03
2022-08-29T23:21:13.171Z,2.57
2022-08-29T23:26:19.794Z,0.80
2022-08-29T23:31:26.010Z,1.20
2022-08-29T23:36:31.602Z,0.60
2022-08-29T23:41:38.292Z,0.70
2022-08-29T23:46:44.103Z,0.73
2022-08-29T23:51:49.623Z,1.20
2022-08-29T23:56:55.097Z,0.60
